Yaroslavl', Russia
Current Conditions -  °F | °C
As of 9:00 PM on Monday 22 Dec 2014 (Local Time) from UUDL Reporting Station
Overcast Overcast  
Wind Chill: 23°   Ceiling: 1600
Heat Index: 28°   Visibility: 6mi
Dew Point: 25°   Wind: 4mph
Humidity: 86%   Direction: 200°SSW
Pressure: 29.38"   Gusts: NA
Location:  57.41°N, 39.46°E
Report Text: UUDL 221800Z 20002MPS 9999 OVC016CB M02/M04 Q0995 NOSIG RMKQFE738 23490536
Loading
Personal Weather Stations






























Interactive Weather Map New forecast layout! Learn more

10-Day Weather Forecast

Advertisements
Track Severe Weather on mobile